Time;durP1;ratioP1;P1;durP2;ratioP2;P2;SDS_P1;SDS_P2;PMS_P1;PMS_P2;Temp;Humidity;BMP_temperature;BMP_pressure;BME280_temperature;BME280_humidity;BME280_pressure;Samples;Min_cycle;Max_cycle;Signal;HPM_P1;HPM_P2
2021/11/03 00:06:58;;;;;;;18.55;11.35;;;;;;;6.22;99.30;99053.78;20819251;28;20053;-71
2021/11/03 00:17:00;;;;;;;19.20;11.13;;;;;;;6.38;98.77;99023.16;20819713;28;20108;-70
2021/11/03 00:27:02;;;;;;;19.92;11.57;;;;;;;6.48;98.83;99005.59;20819277;28;20129;-70
2021/11/03 00:37:04;;;;;;;14.82;9.20;;;;;;;6.54;98.28;98997.66;20818810;28;20053;-70
2021/11/03 00:47:06;;;;;;;13.35;7.28;;;;;;;6.70;97.41;98970.41;20818079;28;20053;-69
2021/11/03 00:57:07;;;;;;;11.35;6.65;;;;;;;6.69;97.08;98951.34;20818049;28;20049;-69
2021/11/03 01:07:09;;;;;;;10.55;6.20;;;;;;;6.66;97.26;98945.41;20816669;28;20053;-69
2021/11/03 01:17:10;;;;;;;9.15;5.28;;;;;;;6.75;96.66;98958.16;20816785;28;20654;-75
2021/11/03 01:27:12;;;;;;;8.65;4.70;;;;;;;6.75;96.55;98944.28;20816356;28;20053;-74
2021/11/03 01:37:13;;;;;;;9.65;4.38;;;;;;;6.81;96.59;98938.97;20816089;28;20041;-75
2021/11/03 01:47:37;;;;;;;8.40;3.88;;;;;;;6.80;95.74;98935.50;20816796;28;20189;-75
2021/11/03 01:57:46;;;;;;;9.43;4.28;;;;;;;6.73;97.67;98933.94;20816979;28;20100;-78
2021/11/03 02:07:50;;;;;;;7.88;3.88;;;;;;;6.76;97.81;98952.09;20814871;28;20568;-74
2021/11/03 02:17:52;;;;;;;8.07;3.97;;;;;;;6.78;97.86;98937.28;20814650;28;20041;-76
2021/11/03 02:27:57;;;;;;;7.35;3.85;;;;;;;6.84;98.09;98931.91;20824101;28;20049;-79
2021/11/03 02:37:58;;;;;;;7.40;3.43;;;;;;;6.82;97.19;98925.06;20827798;28;20075;-77
2021/11/03 02:48:00;;;;;;;6.20;3.55;;;;;;;6.86;96.92;98930.16;20827481;28;20088;-76
2021/11/03 02:58:01;;;;;;;7.53;3.35;;;;;;;6.85;97.30;98923.25;20826696;28;20045;-73
2021/11/03 03:08:03;;;;;;;6.30;3.20;;;;;;;6.87;97.34;98913.66;20825899;28;20272;-77
2021/11/03 03:18:05;;;;;;;6.55;3.33;;;;;;;6.89;97.15;98908.41;20825925;28;20114;-74
2021/11/03 03:28:06;;;;;;;7.90;3.10;;;;;;;6.88;98.01;98889.34;20825578;28;20041;-75
2021/11/03 03:38:08;;;;;;;10.35;4.45;;;;;;;6.90;97.22;98892.78;20823444;28;20053;-83
2021/11/03 03:48:10;;;;;;;5.70;3.30;;;;;;;6.85;97.75;98872.94;20823132;28;20508;-76
2021/11/03 03:58:11;;;;;;;8.55;3.75;;;;;;;6.91;97.10;98858.06;20822165;28;20048;-75
2021/11/03 04:08:14;;;;;;;7.75;3.70;;;;;;;6.90;96.70;98845.94;20821898;28;20049;-74
2021/11/03 04:18:16;;;;;;;10.80;4.50;;;;;;;6.90;96.92;98832.09;20821144;28;20095;-74
2021/11/03 04:28:18;;;;;;;5.72;3.08;;;;;;;6.84;96.96;98835.66;20820291;28;20053;-80
2021/11/03 04:38:19;;;;;;;6.43;3.10;;;;;;;6.90;96.77;98819.94;20819255;28;20123;-74
2021/11/03 04:48:21;;;;;;;6.18;2.97;;;;;;;6.91;96.53;98797.34;20819291;28;20100;-72
2021/11/03 04:58:22;;;;;;;8.07;2.78;;;;;;;6.89;96.35;98792.16;20818270;28;20410;-80
2021/11/03 05:08:24;;;;;;;9.93;3.50;;;;;;;6.85;96.42;98784.50;20816897;28;20049;-78
2021/11/03 05:18:25;;;;;;;7.97;4.22;;;;;;;6.91;95.85;98773.94;20817643;28;20123;-80
2021/11/03 05:28:28;;;;;;;9.00;4.68;;;;;;;6.85;96.22;98759.34;20817064;28;20053;-75
2021/11/03 05:38:29;;;;;;;10.85;5.72;;;;;;;6.85;97.44;98753.28;20816321;28;20104;-80
2021/11/03 05:48:33;;;;;;;8.00;4.57;;;;;;;6.85;95.46;98735.94;20818366;28;20057;-74
2021/11/03 05:58:36;;;;;;;8.73;4.85;;;;;;;6.88;95.32;98730.63;20822718;28;20403;-76
2021/11/03 06:08:38;;;;;;;7.82;4.75;;;;;;;6.91;96.03;98717.56;20830757;28;20049;-80
2021/11/03 06:18:39;;;;;;;8.35;4.10;;;;;;;6.94;95.69;98716.59;20831624;28;20096;-76
2021/11/03 06:28:41;;;;;;;7.45;4.18;;;;;;;6.94;94.99;98716.59;20831111;28;20499;-74
2021/11/03 06:38:43;;;;;;;10.45;5.40;;;;;;;6.92;95.75;98724.47;20829563;28;20476;-76
2021/11/03 06:48:45;;;;;;;7.68;4.78;;;;;;;7.01;96.82;98748.53;20829272;28;20129;-74
2021/11/03 06:58:47;;;;;;;9.02;5.88;;;;;;;7.05;97.99;98765.75;20826774;28;20099;-75
2021/11/03 07:08:51;;;;;;;12.95;9.52;;;;;;;7.05;98.01;98763.16;20822520;28;20049;-74
2021/11/03 07:18:53;;;;;;;13.07;8.10;;;;;;;7.08;97.31;98757.84;20825720;28;20052;-73
2021/11/03 07:28:55;;;;;;;10.55;7.00;;;;;;;7.17;96.95;98752.38;20823883;28;20071;-75
2021/11/03 07:38:57;;;;;;;15.48;7.65;;;;;;;7.13;97.26;98754.22;20821618;28;20053;-74
2021/11/03 07:49:06;;;;;;;9.48;5.53;;;;;;;7.17;97.30;98755.84;20813125;28;20072;-76
2021/11/03 07:59:09;;;;;;;9.80;5.60;;;;;;;7.30;97.29;98763.31;20783025;28;20465;-74
2021/11/03 08:09:11;;;;;;;17.77;10.15;;;;;;;7.40;96.86;98769.97;20757339;28;20072;-74
2021/11/03 08:19:12;;;;;;;12.85;7.78;;;;;;;7.46;96.16;98788.84;20766651;28;20496;-74
2021/11/03 08:29:14;;;;;;;12.93;6.00;;;;;;;7.43;97.59;98783.75;20771505;28;20445;-76
2021/11/03 08:39:15;;;;;;;11.00;6.03;;;;;;;7.36;97.79;98782.22;20759841;28;20054;-73
2021/11/03 08:49:17;;;;;;;12.63;6.53;;;;;;;7.52;97.95;98787.84;20729969;28;20048;-73
2021/11/03 08:59:18;;;;;;;12.25;7.20;;;;;;;7.59;98.04;98793.72;20729247;28;20104;-73
2021/11/03 09:09:20;;;;;;;12.73;7.13;;;;;;;7.62;98.54;98804.06;20729720;28;20100;-73
2021/11/03 09:19:25;;;;;;;12.32;8.95;;;;;;;7.71;98.82;98808.97;20806665;28;20750;-73
2021/11/03 09:29:27;;;;;;;11.27;7.35;;;;;;;7.77;98.48;98802.75;20809704;28;20041;-73
2021/11/03 09:39:28;;;;;;;12.10;6.43;;;;;;;7.81;98.65;98800.00;20819770;28;20103;-73
2021/11/03 09:49:37;;;;;;;10.10;6.03;;;;;;;8.01;98.57;98827.22;20824719;28;20100;-73
2021/11/03 09:59:50;;;;;;;12.02;7.45;;;;;;;8.10;97.95;98829.53;20822594;28;20087;-74
2021/11/03 10:09:52;;;;;;;11.70;7.43;;;;;;;8.23;97.68;98849.09;20819227;28;20106;-74
2021/11/03 10:19:54;;;;;;;15.02;7.50;;;;;;;8.59;95.23;98854.09;20739948;28;20054;-73
2021/11/03 10:30:14;;;;;;;12.30;6.65;;;;;;;8.53;96.32;98856.88;20739467;28;20425;-73
2021/11/03 10:40:23;;;;;;;12.35;7.38;;;;;;;8.78;95.61;98846.53;20739616;28;20112;-75
2021/11/03 10:50:33;;;;;;;11.20;6.85;;;;;;;9.08;95.45;98847.22;20738061;28;20054;-74
2021/11/03 11:00:39;;;;;;;11.15;7.53;;;;;;;9.16;95.77;98840.00;20735801;28;20042;-74
2021/11/03 11:10:45;;;;;;;13.15;7.25;;;;;;;9.37;95.95;98835.75;20745918;28;20558;-75
2021/11/03 11:20:54;;;;;;;9.52;5.80;;;;;;;9.46;94.78;98836.28;20819599;28;20099;-74
2021/11/03 11:31:06;;;;;;;7.45;4.60;;;;;;;9.49;94.43;98837.94;20817024;28;20229;-73
2021/11/03 11:41:36;;;;;;;7.82;4.70;;;;;;;9.61;93.24;98834.00;20815454;28;20312;-73
2021/11/03 11:51:43;;;;;;;7.95;4.20;;;;;;;9.49;93.74;98828.34;20814798;28;20114;-72
2021/11/03 12:01:47;;;;;;;7.43;4.55;;;;;;;9.55;94.26;98823.78;20814007;28;20057;-74
2021/11/03 12:11:55;;;;;;;8.13;5.53;;;;;;;9.54;94.03;98828.16;20795786;28;20104;-73
2021/11/03 12:22:01;;;;;;;9.82;5.72;;;;;;;9.63;93.74;98824.34;20731343;28;20072;-76
2021/11/03 12:32:03;;;;;;;12.27;6.25;;;;;;;9.55;93.76;98814.19;20728893;28;20042;-74
2021/11/03 12:42:20;;;;;;;9.82;6.05;;;;;;;9.75;94.64;98805.59;20729605;28;20500;-74
2021/11/03 12:52:25;;;;;;;10.35;5.93;;;;;;;9.71;94.38;98802.25;20727279;28;20485;-74
2021/11/03 13:02:32;;;;;;;10.23;6.60;;;;;;;9.74;95.12;98815.22;20728277;28;20053;-73
2021/11/03 13:12:38;;;;;;;10.38;6.63;;;;;;;9.63;96.12;98833.06;20772373;28;20049;-74
2021/11/03 13:22:48;;;;;;;13.23;9.10;;;;;;;9.64;96.57;98826.06;20810332;28;20045;-74
2021/11/03 13:33:00;;;;;;;10.27;6.78;;;;;;;9.81;95.86;98826.28;20807789;28;20095;-76
2021/11/03 13:43:01;;;;;;;13.35;8.50;;;;;;;9.81;95.70;98805.34;20800523;28;20056;-74
2021/11/03 13:53:05;;;;;;;12.38;8.05;;;;;;;9.82;95.88;98794.03;20800664;28;20045;-73
2021/11/03 14:03:24;;;;;;;9.03;5.90;;;;;;;9.72;95.29;98787.41;20800701;28;20095;-74
2021/11/03 14:13:32;;;;;;;;;;;;;;;9.82;95.70;98791.41;20797102;28;20053;-73
2021/11/03 14:23:34;;;;;;;10.57;6.88;;;;;;;9.77;95.62;98793.31;20810374;28;20344;-72
2021/11/03 14:33:40;;;;;;;11.18;6.22;;;;;;;9.68;94.92;98809.38;20814885;28;20037;-73
2021/11/03 14:43:42;;;;;;;9.75;5.57;;;;;;;9.64;95.56;98833.91;20814506;28;20053;-74
2021/11/03 14:53:45;;;;;;;8.90;4.97;;;;;;;9.56;95.37;98836.78;20813271;28;20046;-73
2021/11/03 15:03:46;;;;;;;7.18;3.42;;;;;;;9.47;94.73;98835.34;20811983;28;20057;-75
2021/11/03 15:13:48;;;;;;;17.73;9.13;;;;;;;9.33;95.07;98837.63;20811530;28;20046;-71
2021/11/03 15:23:50;;;;;;;9.68;5.82;;;;;;;9.18;95.61;98823.34;20810976;28;20119;-71
2021/11/03 15:33:52;;;;;;;13.88;7.63;;;;;;;9.05;94.44;98814.22;20809157;28;20095;-72
2021/11/03 15:43:55;;;;;;;27.30;16.95;;;;;;;8.87;94.97;98817.50;20808272;28;20434;-71
2021/11/03 15:53:56;;;;;;;11.73;6.72;;;;;;;8.67;95.94;98815.53;20806767;28;20494;-74
2021/11/03 16:04:04;;;;;;;7.07;4.13;;;;;;;8.44;97.32;98822.38;20806537;28;20045;-73
2021/11/03 16:14:05;;;;;;;7.38;3.28;;;;;;;8.30;97.73;98834.97;20805095;28;20107;-71
2021/11/03 16:24:17;;;;;;;19.27;11.45;;;;;;;8.17;98.63;98831.88;20805852;28;20497;-73
2021/11/03 16:34:19;;;;;;;28.58;19.80;;;;;;;8.08;99.38;98826.97;20805392;28;20438;-73
2021/11/03 16:44:23;;;;;;;32.75;22.77;;;;;;;8.06;99.10;98835.75;20804213;28;20131;-71
2021/11/03 16:54:25;;;;;;;17.75;12.15;;;;;;;7.84;97.96;98851.16;20803712;28;20091;-70
2021/11/03 17:04:27;;;;;;;13.13;8.07;;;;;;;7.73;99.57;98874.94;20802227;28;20383;-72
2021/11/03 17:14:33;;;;;;;17.10;9.98;;;;;;;7.62;99.31;98882.19;20794962;28;20518;-70
2021/11/03 17:24:37;;;;;;;14.52;8.45;;;;;;;7.44;99.37;98889.63;20800846;28;20112;-71
2021/11/03 17:34:38;;;;;;;14.27;8.13;;;;;;;7.43;98.72;98871.44;20801571;28;20049;-71
2021/11/03 17:44:46;;;;;;;12.95;7.78;;;;;;;7.34;99.32;98877.75;20801917;28;20057;-71
2021/11/03 17:54:48;;;;;;;12.95;8.35;;;;;;;7.27;98.81;98860.56;20807387;28;20054;-70
2021/11/03 18:04:50;;;;;;;17.05;10.55;;;;;;;7.25;99.15;98875.38;20816511;28;20387;-70
2021/11/03 18:14:54;;;;;;;23.40;13.27;;;;;;;7.29;99.29;98868.34;20815830;28;20491;-70
2021/11/03 18:24:56;;;;;;;31.00;21.30;;;;;;;7.40;99.11;98887.97;20815297;28;20049;-70
2021/11/03 18:34:58;;;;;;;35.90;24.70;;;;;;;7.46;99.34;98893.00;20813222;28;20034;-71
2021/11/03 18:44:59;;;;;;;19.40;12.85;;;;;;;7.50;100.00;98914.63;20813629;28;20049;-70
2021/11/03 18:55:08;;;;;;;23.15;14.27;;;;;;;7.49;99.73;98919.88;20812461;28;20045;-71
2021/11/03 19:05:09;;;;;;;27.83;19.33;;;;;;;7.60;99.79;98915.22;20799878;28;20107;-73
2021/11/03 19:15:18;;;;;;;27.55;18.58;;;;;;;7.58;100.00;98924.84;20809035;28;20100;-75
2021/11/03 19:25:36;;;;;;;24.35;17.02;;;;;;;7.64;99.84;98932.50;20808606;28;20041;-74
2021/11/03 19:35:46;;;;;;;26.25;18.73;;;;;;;7.70;99.90;98958.38;20795571;28;20045;-73
2021/11/03 19:45:48;;;;;;;22.48;16.17;;;;;;;7.63;99.39;98949.03;20813644;28;20057;-77
2021/11/03 19:55:53;;;;;;;23.38;15.68;;;;;;;7.64;99.54;98948.13;20801603;28;20103;-75
2021/11/03 20:05:57;;;;;;;22.13;16.53;;;;;;;7.67;99.65;98958.47;20806480;28;20461;-73
2021/11/03 20:16:06;;;;;;;21.85;14.98;;;;;;;7.69;99.02;98954.06;20805952;28;20041;-71
2021/11/03 20:26:08;;;;;;;20.00;14.10;;;;;;;7.69;98.95;98941.88;20803691;28;20049;-71
2021/11/03 20:36:14;;;;;;;23.08;16.02;;;;;;;7.72;98.75;98954.84;20803898;28;20040;-74
2021/11/03 20:46:16;;;;;;;23.08;14.95;;;;;;;7.71;98.82;98968.75;20805057;28;20075;-81
2021/11/03 20:56:19;;;;;;;11.80;7.35;;;;;;;7.76;97.69;98979.06;20804307;28;20041;-69
2021/11/03 21:06:21;;;;;;;9.18;6.38;;;;;;;7.71;96.92;98960.06;20802705;28;20668;-69
2021/11/03 21:16:23;;;;;;;10.73;6.80;;;;;;;7.68;97.58;98979.25;20803627;28;20057;-69
2021/11/03 21:26:25;;;;;;;13.23;7.20;;;;;;;7.66;97.64;98993.19;20801968;28;20045;-70
2021/11/03 21:36:26;;;;;;;14.77;8.00;;;;;;;7.63;97.47;98999.38;20821738;28;20542;-76
2021/11/03 21:46:28;;;;;;;15.10;9.02;;;;;;;7.62;97.29;99009.84;20818826;28;20442;-70
2021/11/03 21:56:31;;;;;;;10.32;6.03;;;;;;;7.59;96.35;99000.34;20819250;28;20052;-74
2021/11/03 22:06:32;;;;;;;11.30;7.22;;;;;;;7.59;96.53;98997.72;20816621;28;20142;-72
2021/11/03 22:16:34;;;;;;;12.07;6.30;;;;;;;7.66;95.36;98993.19;20814317;28;20046;-70
2021/11/03 22:26:36;;;;;;;11.52;6.80;;;;;;;7.52;96.90;98979.69;20815800;28;20128;-69
2021/11/03 22:36:38;;;;;;;11.05;6.00;;;;;;;7.47;96.63;98958.97;20812885;28;20350;-71
2021/11/03 22:46:39;;;;;;;9.05;6.20;;;;;;;7.42;96.82;98972.09;20772460;28;20053;-73
2021/11/03 22:56:41;;;;;;;9.98;6.70;;;;;;;7.53;97.29;98976.22;20778668;28;20037;-70
2021/11/03 23:06:43;;;;;;;10.23;5.93;;;;;;;7.54;97.46;98991.78;20799788;28;20476;-70
2021/11/03 23:16:44;;;;;;;11.13;6.65;;;;;;;7.50;97.09;99000.56;20815304;28;20049;-72
2021/11/03 23:26:46;;;;;;;11.80;6.15;;;;;;;7.48;96.31;99007.59;20813057;28;20049;-70
2021/11/03 23:36:47;;;;;;;8.05;4.03;;;;;;;7.39;95.86;98990.44;20812762;28;20041;-73
2021/11/03 23:46:52;;;;;;;7.60;3.13;;;;;;;7.31;95.48;98968.09;20812534;28;20049;-70
2021/11/03 23:56:53;;;;;;;4.93;2.37;;;;;;;7.22;94.82;98944.88;20811669;28;20414;-68
